createdAt,value
2018-09-10T00:01:54.110Z,58.76
2018-09-10T00:04:22.864Z,59.22
2018-09-10T00:06:51.631Z,58.89
2018-09-10T00:09:20.324Z,59.57
2018-09-10T00:11:49.008Z,59.24
2018-09-10T00:14:17.674Z,59.43
2018-09-10T00:16:46.366Z,59.97
2018-09-10T00:19:15.045Z,59.68
2018-09-10T00:21:43.718Z,59.90
2018-09-10T00:24:12.344Z,59.94
2018-09-10T00:26:41.091Z,60.41
2018-09-10T00:29:09.774Z,59.59
2018-09-10T00:31:38.438Z,60.46
2018-09-10T00:34:07.168Z,60.45
2018-09-10T00:36:35.843Z,60.79
2018-09-10T00:39:07.212Z,60.93
2018-09-10T00:41:35.897Z,61.06
2018-09-10T00:44:04.582Z,61.28
2018-09-10T00:46:33.283Z,61.27
2018-09-10T00:49:02.040Z,61.04
2018-09-10T00:51:30.734Z,61.63
2018-09-10T00:53:59.456Z,60.99
2018-09-10T00:56:28.116Z,61.44
2018-09-10T00:58:56.841Z,61.14
2018-09-10T01:01:25.568Z,61.31
2018-09-10T01:03:54.304Z,61.61
2018-09-10T01:06:22.949Z,61.36
2018-09-10T01:08:51.687Z,61.56
2018-09-10T01:11:20.364Z,61.49
2018-09-10T01:13:49.572Z,61.95
2018-09-10T01:16:18.270Z,62.14
2018-09-10T01:18:46.892Z,62.37
2018-09-10T01:21:19.292Z,62.66
2018-09-10T01:23:47.983Z,62.59
2018-09-10T01:26:16.663Z,62.36
2018-09-10T01:28:45.334Z,62.58
2018-09-10T01:31:14.034Z,63.11
2018-09-10T01:33:47.969Z,63.33
2018-09-10T01:36:16.711Z,63.15
2018-09-10T01:38:45.360Z,63.42
2018-09-10T01:41:14.029Z,63.36
2018-09-10T01:43:42.713Z,63.53
2018-09-10T01:46:11.447Z,63.59
2018-09-10T01:48:40.216Z,63.76
2018-09-10T01:51:08.928Z,63.72
2018-09-10T01:53:37.587Z,63.26
2018-09-10T01:56:06.626Z,64.06
2018-09-10T01:58:35.300Z,63.75
2018-09-10T02:01:03.964Z,63.74
2018-09-10T02:03:32.656Z,64.15
2018-09-10T02:06:01.350Z,64.24
2018-09-10T02:08:30.014Z,64.71
2018-09-10T02:10:59.271Z,64.34
2018-09-10T02:13:27.922Z,64.43
2018-09-10T02:15:56.643Z,64.48
2018-09-10T02:18:25.339Z,64.81
2018-09-10T02:20:54.018Z,65.20
2018-09-10T02:23:22.710Z,64.91
2018-09-10T02:25:51.347Z,65.01
2018-09-10T02:28:20.067Z,65.01
2018-09-10T02:30:48.770Z,65.10
2018-09-10T02:33:17.440Z,65.31
2018-09-10T02:35:46.154Z,65.37
2018-09-10T02:38:14.885Z,65.57
2018-09-10T02:40:43.540Z,65.92
2018-09-10T02:43:12.290Z,66.08
2018-09-10T02:45:40.996Z,65.72
2018-09-10T02:48:09.707Z,65.93
2018-09-10T02:50:38.372Z,66.26
2018-09-10T02:53:07.029Z,66.63
2018-09-10T02:55:35.658Z,66.74
2018-09-10T02:58:04.916Z,66.75
2018-09-10T03:00:33.628Z,66.52
2018-09-10T03:03:02.320Z,66.62
2018-09-10T03:05:31.008Z,66.92
2018-09-10T03:07:59.691Z,67.24
2018-09-10T03:10:28.358Z,67.68
2018-09-10T03:12:57.094Z,67.59
2018-09-10T03:15:25.828Z,67.97
2018-09-10T03:17:54.477Z,67.55
2018-09-10T03:20:23.234Z,67.73
2018-09-10T03:22:51.845Z,67.89
2018-09-10T03:25:20.522Z,67.57
2018-09-10T03:27:49.216Z,67.50
2018-09-10T03:30:17.870Z,67.99
2018-09-10T03:32:46.578Z,67.63
2018-09-10T03:35:15.255Z,67.69
2018-09-10T03:37:43.996Z,68.36
2018-09-10T03:40:12.675Z,68.27
2018-09-10T03:42:41.331Z,67.77
2018-09-10T03:45:09.978Z,68.24
2018-09-10T03:47:38.679Z,68.26
2018-09-10T03:50:07.411Z,68.84
2018-09-10T03:52:36.114Z,68.63
2018-09-10T03:55:04.888Z,68.52
2018-09-10T03:57:33.584Z,68.50
2018-09-10T04:00:02.270Z,68.42
2018-09-10T04:02:30.934Z,68.08
2018-09-10T04:04:59.704Z,68.38
2018-09-10T04:07:28.422Z,68.21
2018-09-10T04:09:57.091Z,68.23
2018-09-10T04:12:25.743Z,68.10
2018-09-10T04:14:54.460Z,68.21
2018-09-10T04:17:23.215Z,68.12
2018-09-10T04:19:56.176Z,68.52
2018-09-10T04:22:24.861Z,68.72
2018-09-10T04:24:53.561Z,68.67
2018-09-10T04:27:22.252Z,68.83
2018-09-10T04:29:50.958Z,68.99
2018-09-10T04:32:19.628Z,68.75
2018-09-10T04:34:48.330Z,69.70
2018-09-10T04:37:17.075Z,68.88
2018-09-10T04:39:45.772Z,69.02
2018-09-10T04:42:14.557Z,68.30
2018-09-10T04:44:43.244Z,68.63
2018-09-10T04:47:11.977Z,68.43
2018-09-10T04:49:40.674Z,68.03
2018-09-10T04:52:09.335Z,67.49
2018-09-10T04:54:38.005Z,67.43
2018-09-10T04:57:06.709Z,66.71
2018-09-10T04:59:35.410Z,66.75
2018-09-10T05:02:04.116Z,66.95
2018-09-10T05:04:32.835Z,66.36
2018-09-10T05:07:01.473Z,66.72
2018-09-10T05:09:30.308Z,66.47
2018-09-10T05:11:58.972Z,65.61
2018-09-10T05:14:27.680Z,65.85
2018-09-10T05:16:56.565Z,65.88
2018-09-10T05:19:25.216Z,65.63
2018-09-10T05:21:53.962Z,65.26
2018-09-10T05:24:22.638Z,65.93
2018-09-10T05:26:51.324Z,66.57
2018-09-10T05:29:20.007Z,67.04
2018-09-10T05:31:48.711Z,66.39
2018-09-10T05:34:17.323Z,65.86
2018-09-10T05:36:46.199Z,64.99
2018-09-10T05:39:15.678Z,65.28
2018-09-10T05:41:44.492Z,65.70
2018-09-10T05:44:13.142Z,64.78
2018-09-10T05:46:41.826Z,64.36
2018-09-10T05:49:10.488Z,64.86
2018-09-10T05:51:39.211Z,64.91
2018-09-10T05:54:07.895Z,64.34
2018-09-10T05:56:36.560Z,64.09
2018-09-10T05:59:05.267Z,63.76
2018-09-10T06:01:33.966Z,63.08
2018-09-10T06:04:02.664Z,62.50
2018-09-10T06:06:31.348Z,63.49
2018-09-10T06:09:00.013Z,62.31
2018-09-10T06:11:28.710Z,63.09
2018-09-10T06:13:57.431Z,62.34
2018-09-10T06:16:26.108Z,62.12
2018-09-10T06:18:54.760Z,61.85
2018-09-10T06:21:23.482Z,62.79
2018-09-10T06:23:52.135Z,62.08
2018-09-10T06:26:20.936Z,62.29
2018-09-10T06:28:49.645Z,60.76
2018-09-10T06:31:18.318Z,60.88
2018-09-10T06:33:46.951Z,60.27
2018-09-10T06:36:15.663Z,59.39
2018-09-10T06:38:44.396Z,59.67
2018-09-10T06:41:13.035Z,59.88
2018-09-10T06:43:41.741Z,59.03
2018-09-10T06:46:10.704Z,59.32
2018-09-10T06:48:39.447Z,58.93
2018-09-10T06:51:08.192Z,58.96
2018-09-10T06:53:36.936Z,59.13
2018-09-10T06:56:06.140Z,58.38
2018-09-10T06:58:35.664Z,58.02
2018-09-10T07:01:04.426Z,57.63
2018-09-10T07:03:33.162Z,57.94
2018-09-10T07:06:01.948Z,57.12
2018-09-10T07:08:30.730Z,57.06
2018-09-10T07:10:59.393Z,57.58
2018-09-10T07:13:28.128Z,56.28
2018-09-10T07:15:56.913Z,56.55
2018-09-10T07:18:25.649Z,56.24
2018-09-10T07:20:54.343Z,55.34
2018-09-10T07:23:23.038Z,56.38
2018-09-10T07:25:51.779Z,56.56
2018-09-10T07:28:20.560Z,56.32
2018-09-10T07:30:49.288Z,56.50
2018-09-10T07:33:17.974Z,57.13
2018-09-10T07:35:46.706Z,56.76
2018-09-10T07:38:16.175Z,55.74
2018-09-10T07:40:44.882Z,55.71
2018-09-10T07:43:13.564Z,55.02
2018-09-10T07:45:42.229Z,55.07
2018-09-10T07:48:10.922Z,54.71
2018-09-10T07:50:39.590Z,55.93
2018-09-10T07:53:08.291Z,55.29
2018-09-10T07:55:37.012Z,54.84
2018-09-10T07:58:05.972Z,54.71
2018-09-10T08:00:34.625Z,53.66
2018-09-10T08:03:03.323Z,55.31
2018-09-10T08:05:32.019Z,52.78
2018-09-10T08:08:00.791Z,53.45
2018-09-10T08:10:29.479Z,52.75
2018-09-10T08:12:58.167Z,51.41
2018-09-10T08:15:26.837Z,51.41
2018-09-10T08:17:55.558Z,50.03
2018-09-10T08:20:24.273Z,51.35
2018-09-10T08:22:52.965Z,51.18
2018-09-10T08:25:21.629Z,51.11
2018-09-10T08:27:50.333Z,48.74
2018-09-10T08:30:19.046Z,49.90
2018-09-10T08:32:47.692Z,49.49
2018-09-10T08:35:16.456Z,49.73
2018-09-10T08:37:45.212Z,48.65
2018-09-10T08:40:13.878Z,48.74
2018-09-10T08:42:42.632Z,48.68
2018-09-10T08:45:11.376Z,46.88
2018-09-10T08:47:40.060Z,47.02
2018-09-10T08:50:09.422Z,46.21
2018-09-10T08:52:38.315Z,47.25
2018-09-10T08:55:07.094Z,46.60
2018-09-10T08:57:35.719Z,45.25
2018-09-10T09:00:06.113Z,44.04
2018-09-10T09:02:34.825Z,44.38
2018-09-10T09:05:03.550Z,45.89
2018-09-10T09:07:32.303Z,46.20
2018-09-10T09:10:00.956Z,45.30
2018-09-10T09:12:29.620Z,43.33
2018-09-10T09:14:58.294Z,44.81
2018-09-10T09:17:27.006Z,44.21
2018-09-10T09:19:56.109Z,43.83
2018-09-10T09:22:24.827Z,44.22
2018-09-10T09:24:53.438Z,43.42
2018-09-10T09:30:52.678Z,44.23
2018-09-10T09:33:21.432Z,44.34
2018-09-10T09:35:55.428Z,44.09
2018-09-10T09:38:29.405Z,45.18
2018-09-10T09:41:03.260Z,44.37
2018-09-10T09:43:37.233Z,44.43
2018-09-10T09:46:07.814Z,45.60
2018-09-10T09:48:36.551Z,44.53
2018-09-10T09:51:05.425Z,42.13
2018-09-10T09:53:34.619Z,42.46
2018-09-10T09:56:03.366Z,42.62
2018-09-10T09:58:32.147Z,41.94
2018-09-10T10:01:06.130Z,42.87
2018-09-10T10:03:40.060Z,43.03
2018-09-10T10:06:08.705Z,42.34
2018-09-10T10:08:37.388Z,42.82
2018-09-10T10:11:06.224Z,43.60
2018-09-10T10:13:34.933Z,41.37
2018-09-10T10:16:03.640Z,42.03
2018-09-10T10:20:01.654Z,42.51
2018-09-10T10:22:30.308Z,40.96
2018-09-10T10:24:59.015Z,39.12
2018-09-10T10:27:27.850Z,39.90
2018-09-10T10:29:56.604Z,38.71
2018-09-10T10:32:25.286Z,37.77
2018-09-10T10:34:53.992Z,39.15
2018-09-10T10:37:22.645Z,37.93
2018-09-10T10:39:51.370Z,37.95
2018-09-10T10:42:20.041Z,38.29
2018-09-10T10:44:48.710Z,38.87
2018-09-10T10:47:17.455Z,38.41
2018-09-10T10:49:47.500Z,38.47
2018-09-10T10:52:16.247Z,37.99
2018-09-10T10:54:44.975Z,38.34
2018-09-10T10:57:13.705Z,38.85
2018-09-10T10:59:42.436Z,39.40
2018-09-10T11:02:11.134Z,38.73
2018-09-10T11:04:39.889Z,37.81
2018-09-10T11:07:08.537Z,38.52
2018-09-10T11:09:37.211Z,37.59
2018-09-10T11:12:05.876Z,37.26
2018-09-10T11:14:34.527Z,37.99
2018-09-10T11:17:03.192Z,35.16
2018-09-10T11:19:31.908Z,35.41
2018-09-10T11:22:00.603Z,34.76
2018-09-10T11:24:29.287Z,35.21
2018-09-10T11:26:58.139Z,36.14
2018-09-10T11:29:26.840Z,36.40
2018-09-10T11:31:55.519Z,35.06
2018-09-10T11:34:24.194Z,32.86
2018-09-10T11:36:52.886Z,34.74
2018-09-10T11:39:21.558Z,32.53
2018-09-10T11:41:50.264Z,34.74
2018-09-10T11:44:18.982Z,34.94
2018-09-10T11:46:47.673Z,34.43
2018-09-10T11:49:16.316Z,34.67
2018-09-10T11:51:45.102Z,33.49
2018-09-10T11:54:13.790Z,34.52
2018-09-10T11:56:42.479Z,34.15
2018-09-10T11:59:11.151Z,33.84
2018-09-10T12:01:39.901Z,32.44
2018-09-10T12:04:08.533Z,31.65
2018-09-10T12:06:37.287Z,31.56
2018-09-10T12:09:07.456Z,33.27
2018-09-10T12:11:36.218Z,33.26
2018-09-10T12:14:04.894Z,32.10
2018-09-10T12:16:33.583Z,33.55
2018-09-10T12:19:02.270Z,32.96
2018-09-10T12:21:30.993Z,32.72
2018-09-10T12:23:59.717Z,31.93
2018-09-10T12:26:28.442Z,33.32
2018-09-10T12:28:57.136Z,32.85
2018-09-10T12:31:25.901Z,32.91
2018-09-10T12:33:54.604Z,34.09
2018-09-10T12:36:23.308Z,33.90
2018-09-10T12:38:52.035Z,34.47
2018-09-10T12:41:20.713Z,34.23
2018-09-10T12:43:49.366Z,32.70
2018-09-10T12:46:18.069Z,32.79
2018-09-10T12:48:47.121Z,33.32
2018-09-10T12:51:15.805Z,33.71
2018-09-10T12:53:44.479Z,32.02
2018-09-10T12:56:13.136Z,32.11
2018-09-10T12:58:41.797Z,31.63
2018-09-10T13:01:10.479Z,32.98
2018-09-10T13:03:39.247Z,32.48
2018-09-10T13:06:07.986Z,33.06
2018-09-10T13:08:36.683Z,30.84
2018-09-10T13:11:05.326Z,30.12
2018-09-10T13:14:37.178Z,30.93
2018-09-10T13:17:05.864Z,32.06
2018-09-10T13:19:34.527Z,32.87
2018-09-10T13:22:03.222Z,31.52
2018-09-10T13:24:31.918Z,32.46
2018-09-10T13:27:00.616Z,32.73
2018-09-10T13:29:29.255Z,31.60
2018-09-10T13:31:57.922Z,30.58
2018-09-10T13:34:26.666Z,31.18
2018-09-10T13:36:55.390Z,31.72
2018-09-10T13:39:24.146Z,32.73
2018-09-10T13:41:52.852Z,33.51
2018-09-10T13:44:21.503Z,34.22
2018-09-10T13:46:50.170Z,32.46
2018-09-10T13:49:18.901Z,32.65
2018-09-10T13:51:47.567Z,32.78
2018-09-10T13:54:16.399Z,34.09
2018-09-10T13:56:45.075Z,34.48
2018-09-10T13:59:13.749Z,33.66
2018-09-10T14:01:42.487Z,32.75
2018-09-10T14:04:11.196Z,32.95
2018-09-10T14:06:39.943Z,33.47
2018-09-10T14:09:08.894Z,33.33
2018-09-10T14:11:38.500Z,33.31
2018-09-10T14:14:07.712Z,34.65
2018-09-10T14:16:36.387Z,34.82
2018-09-10T14:19:05.491Z,33.69
2018-09-10T14:21:34.191Z,35.38
2018-09-10T14:24:02.874Z,34.65
2018-09-10T14:26:31.589Z,33.89
2018-09-10T14:29:00.251Z,33.52
2018-09-10T14:31:29.048Z,33.27
2018-09-10T14:33:57.723Z,33.15
2018-09-10T14:36:26.432Z,32.76
2018-09-10T14:38:55.094Z,32.76
2018-09-10T14:41:23.781Z,32.43
2018-09-10T14:43:52.458Z,32.71
2018-09-10T14:46:21.126Z,33.19
2018-09-10T14:48:49.830Z,31.95
2018-09-10T14:51:18.508Z,33.05
2018-09-10T14:53:47.245Z,33.19
2018-09-10T14:56:15.906Z,33.29
2018-09-10T14:58:44.591Z,32.26
2018-09-10T15:01:13.239Z,31.83
2018-09-10T15:03:41.957Z,32.29
2018-09-10T15:06:10.640Z,32.99
2018-09-10T15:08:39.310Z,32.48
2018-09-10T15:11:08.033Z,32.84
2018-09-10T15:13:36.720Z,33.76
2018-09-10T15:16:05.416Z,33.52
2018-09-10T15:18:34.168Z,32.83
2018-09-10T15:21:02.800Z,32.84
2018-09-10T15:23:31.558Z,33.17
2018-09-10T15:26:00.311Z,33.20
2018-09-10T15:28:29.014Z,33.85
2018-09-10T15:30:57.758Z,34.74
2018-09-10T15:33:27.661Z,34.10
2018-09-10T15:35:56.428Z,34.94
2018-09-10T15:38:25.089Z,34.74
2018-09-10T15:40:53.782Z,34.90
2018-09-10T15:43:22.487Z,35.45
2018-09-10T15:45:51.251Z,35.25
2018-09-10T15:48:19.969Z,36.15
2018-09-10T15:50:48.661Z,35.79
2018-09-10T15:53:17.378Z,35.04
2018-09-10T15:55:46.047Z,35.44
2018-09-10T15:58:14.754Z,36.34
2018-09-10T16:00:43.495Z,36.30
2018-09-10T16:03:12.209Z,35.34
2018-09-10T16:05:40.848Z,35.87
2018-09-10T16:08:09.566Z,36.01
2018-09-10T16:10:38.205Z,36.85
2018-09-10T16:13:06.934Z,37.44
2018-09-10T16:15:35.659Z,37.42
2018-09-10T16:18:04.319Z,38.36
2018-09-10T16:20:33.025Z,39.33
2018-09-10T16:23:01.683Z,38.85
2018-09-10T16:25:30.506Z,39.66
2018-09-10T16:27:59.198Z,39.96
2018-09-10T16:30:27.943Z,39.86
2018-09-10T16:32:56.714Z,39.47
2018-09-10T16:35:25.434Z,39.93
2018-09-10T16:37:54.154Z,40.70
2018-09-10T16:40:22.846Z,40.18
2018-09-10T16:42:51.559Z,41.59
2018-09-10T16:45:20.447Z,41.11
2018-09-10T16:47:49.172Z,41.63
2018-09-10T16:50:17.893Z,41.24
2018-09-10T16:52:46.529Z,41.55
2018-09-10T16:55:15.282Z,42.42
2018-09-10T16:57:44.953Z,42.31
2018-09-10T17:00:15.222Z,42.20
2018-09-10T17:02:43.960Z,42.62
2018-09-10T17:05:12.680Z,43.18
2018-09-10T17:07:41.490Z,43.17
2018-09-10T17:10:10.300Z,43.04
2018-09-10T17:12:39.096Z,42.58
2018-09-10T17:15:07.916Z,42.58
2018-09-10T17:17:36.646Z,43.55
2018-09-10T17:20:05.698Z,43.20
2018-09-10T17:22:34.591Z,43.80
2018-09-10T17:25:03.274Z,43.48
2018-09-10T17:27:31.948Z,44.06
2018-09-10T17:30:00.745Z,43.87
2018-09-10T17:32:29.471Z,43.98
2018-09-10T17:34:58.241Z,44.52
2018-09-10T17:37:26.963Z,44.88
2018-09-10T17:39:55.732Z,44.62
2018-09-10T17:42:24.456Z,44.67
2018-09-10T17:44:53.165Z,44.51
2018-09-10T17:47:21.880Z,44.90
2018-09-10T17:49:50.687Z,44.85
2018-09-10T17:52:19.445Z,44.74
2018-09-10T17:54:48.169Z,45.21
2018-09-10T17:57:16.867Z,45.47
2018-09-10T17:59:45.655Z,44.98
2018-09-10T18:02:14.336Z,44.77
2018-09-10T18:04:42.996Z,45.55
2018-09-10T18:07:11.654Z,45.38
2018-09-10T18:09:43.554Z,45.42
2018-09-10T18:12:12.330Z,45.54
2018-09-10T18:14:41.166Z,45.95
2018-09-10T18:17:09.994Z,45.97
2018-09-10T18:19:39.018Z,46.23
2018-09-10T18:22:07.759Z,46.45
2018-09-10T18:24:36.502Z,46.50
2018-09-10T18:27:05.178Z,46.89
2018-09-10T18:29:33.871Z,46.70
2018-09-10T18:32:02.621Z,47.03
2018-09-10T18:34:31.327Z,46.96
2018-09-10T18:37:00.092Z,47.15
2018-09-10T18:39:28.824Z,47.23
2018-09-10T18:41:57.517Z,47.41
2018-09-10T18:44:26.254Z,47.64
2018-09-10T18:46:54.904Z,47.62
2018-09-10T18:49:23.627Z,48.12
2018-09-10T18:51:52.574Z,48.20
2018-09-10T18:54:21.324Z,48.38
2018-09-10T18:56:50.010Z,48.65
2018-09-10T18:59:18.678Z,48.32
2018-09-10T19:01:47.374Z,48.47
2018-09-10T19:04:16.264Z,48.88
2018-09-10T19:06:44.963Z,48.81
2018-09-10T19:09:13.697Z,49.14
2018-09-10T19:11:42.457Z,49.13
2018-09-10T19:14:11.146Z,49.20
2018-09-10T19:16:39.878Z,48.92
2018-09-10T19:19:08.669Z,49.09
2018-09-10T19:21:37.369Z,48.92
2018-09-10T19:24:06.024Z,49.29
2018-09-10T19:26:34.816Z,49.78
2018-09-10T19:29:03.546Z,49.79
2018-09-10T19:31:32.541Z,50.26
2018-09-10T19:34:01.212Z,49.86
2018-09-10T19:36:29.966Z,50.26
2018-09-10T19:38:58.654Z,50.04
2018-09-10T19:41:27.300Z,49.95
2018-09-10T19:43:56.017Z,50.15
2018-09-10T19:46:24.806Z,50.76
2018-09-10T19:48:53.536Z,50.86
2018-09-10T19:51:24.974Z,50.83
2018-09-10T19:53:55.616Z,50.91
2018-09-10T19:56:24.990Z,50.77
2018-09-10T19:58:53.724Z,50.91
2018-09-10T20:01:22.499Z,51.25
2018-09-10T20:03:51.123Z,51.61
2018-09-10T20:06:19.839Z,51.35
2018-09-10T20:08:48.539Z,51.54
2018-09-10T20:11:17.184Z,51.14
2018-09-10T20:13:45.979Z,51.14
2018-09-10T20:16:14.789Z,51.52
2018-09-10T20:18:43.579Z,51.70
2018-09-10T20:21:12.296Z,51.97
2018-09-10T20:23:41.265Z,51.83
2018-09-10T20:26:10.021Z,51.84
2018-09-10T20:28:38.739Z,51.77
2018-09-10T20:31:07.558Z,52.30
2018-09-10T20:33:41.230Z,52.53
2018-09-10T20:36:09.910Z,52.55
2018-09-10T20:38:38.609Z,52.53
2018-09-10T20:41:07.385Z,53.06
2018-09-10T20:43:36.208Z,52.68
2018-09-10T20:46:04.898Z,53.21
2018-09-10T20:48:33.694Z,53.14
2018-09-10T20:51:02.357Z,53.41
2018-09-10T20:53:31.005Z,53.22
2018-09-10T20:55:59.637Z,53.12
2018-09-10T20:58:28.362Z,53.25
2018-09-10T21:00:57.106Z,53.72
2018-09-10T21:03:25.805Z,54.00
2018-09-10T21:05:54.474Z,53.40
2018-09-10T21:08:23.117Z,53.81
2018-09-10T21:10:51.769Z,53.88
2018-09-10T21:13:20.457Z,53.64
2018-09-10T21:15:49.096Z,53.66
2018-09-10T21:18:17.815Z,53.91
2018-09-10T21:20:46.493Z,53.65
2018-09-10T21:23:15.155Z,54.13
2018-09-10T21:25:43.841Z,53.68
2018-09-10T21:28:12.470Z,53.50
2018-09-10T21:30:41.114Z,53.83
2018-09-10T21:33:09.882Z,54.25
2018-09-10T21:35:38.639Z,53.85
2018-09-10T21:38:07.604Z,53.54
2018-09-10T21:40:36.263Z,53.93
2018-09-10T21:43:05.314Z,53.91
2018-09-10T21:45:34.043Z,54.15
2018-09-10T21:48:02.708Z,54.21
2018-09-10T21:50:31.367Z,53.88
2018-09-10T21:53:00.047Z,54.36
2018-09-10T21:55:28.726Z,54.54
2018-09-10T21:57:57.421Z,54.33
2018-09-10T22:00:26.215Z,53.92
2018-09-10T22:02:55.072Z,54.27
2018-09-10T22:05:23.891Z,54.55
2018-09-10T22:07:52.755Z,54.79
2018-09-10T22:10:21.624Z,54.70
2018-09-10T22:12:50.427Z,54.53
2018-09-10T22:15:19.149Z,54.96
2018-09-10T22:17:48.038Z,54.90
2018-09-10T22:20:16.782Z,54.97
2018-09-10T22:22:45.514Z,54.75
2018-09-10T22:25:14.175Z,54.89
2018-09-10T22:27:42.811Z,55.16
2018-09-10T22:30:11.659Z,54.79
2018-09-10T22:32:40.378Z,54.70
2018-09-10T22:35:09.054Z,54.95
2018-09-10T22:37:37.718Z,55.43
2018-09-10T22:40:06.419Z,54.93
2018-09-10T22:42:35.068Z,54.70
2018-09-10T22:45:03.811Z,54.44
2018-09-10T22:47:32.478Z,54.41
2018-09-10T22:50:01.150Z,54.61
2018-09-10T22:52:29.764Z,54.40
2018-09-10T22:54:58.524Z,55.46
2018-09-10T22:57:27.262Z,55.33
2018-09-10T22:59:55.927Z,54.72
2018-09-10T23:02:24.606Z,54.86
2018-09-10T23:04:53.328Z,55.23
2018-09-10T23:07:21.988Z,55.08
2018-09-10T23:09:50.739Z,54.67
2018-09-10T23:12:19.564Z,55.00
2018-09-10T23:14:48.388Z,54.63
2018-09-10T23:17:17.205Z,54.41
2018-09-10T23:19:45.881Z,55.40
2018-09-10T23:22:14.523Z,55.53
2018-09-10T23:24:43.278Z,56.11
2018-09-10T23:27:11.963Z,55.48
2018-09-10T23:29:40.743Z,55.60
2018-09-10T23:32:09.699Z,55.74
2018-09-10T23:34:38.441Z,55.38
2018-09-10T23:37:07.103Z,55.65
2018-09-10T23:39:35.828Z,55.70
2018-09-10T23:42:04.524Z,55.33
2018-09-10T23:44:33.210Z,55.80
2018-09-10T23:47:01.872Z,55.38
2018-09-10T23:49:30.631Z,55.80
2018-09-10T23:51:59.375Z,55.01
2018-09-10T23:54:28.164Z,55.63
2018-09-10T23:56:56.863Z,55.67
2018-09-10T23:59:25.560Z,55.47
